createdAt,value
2023-05-08T00:01:07.569Z,14.27
2023-05-08T00:03:35.894Z,13.00
2023-05-08T00:06:05.641Z,14.13
2023-05-08T00:08:35.130Z,14.27
2023-05-08T00:11:03.327Z,14.57
2023-05-08T00:13:31.515Z,13.13
2023-05-08T00:15:59.942Z,12.87
2023-05-08T00:18:28.135Z,12.00
2023-05-08T00:20:56.298Z,11.80
2023-05-08T00:23:24.460Z,12.50
2023-05-08T00:25:53.994Z,12.27
2023-05-08T00:28:22.722Z,12.00
2023-05-08T00:30:50.945Z,12.23
2023-05-08T00:33:19.134Z,13.07
2023-05-08T00:35:47.312Z,12.87
2023-05-08T00:38:15.623Z,12.57
2023-05-08T00:40:43.948Z,12.70
2023-05-08T00:43:13.449Z,12.43
2023-05-08T00:45:42.133Z,12.27
2023-05-08T00:48:10.355Z,11.40
2023-05-08T00:50:38.551Z,12.07
2023-05-08T00:53:06.909Z,11.50
2023-05-08T00:55:35.176Z,11.57
2023-05-08T00:58:03.348Z,12.37
2023-05-08T01:00:33.299Z,12.20
2023-05-08T01:03:02.316Z,11.87
2023-05-08T01:05:30.694Z,11.63
2023-05-08T01:07:58.869Z,11.83
2023-05-08T01:10:30.953Z,11.63
2023-05-08T01:13:07.057Z,12.00
2023-05-08T01:15:40.403Z,12.70
2023-05-08T01:18:13.165Z,12.30
2023-05-08T01:20:44.804Z,12.27
2023-05-08T01:23:31.915Z,11.87
2023-05-08T01:26:17.481Z,12.47
2023-05-08T01:29:04.087Z,11.97
2023-05-08T01:31:40.704Z,12.40
2023-05-08T01:34:13.254Z,12.83
2023-05-08T01:36:42.803Z,11.97
2023-05-08T01:39:16.529Z,12.13
2023-05-08T01:41:47.449Z,12.90
2023-05-08T01:44:17.191Z,13.47
2023-05-08T01:46:47.061Z,12.23
2023-05-08T01:49:19.704Z,12.67
2023-05-08T01:51:50.381Z,13.20
2023-05-08T01:54:21.705Z,12.97
2023-05-08T01:56:50.611Z,13.30
2023-05-08T01:59:21.406Z,12.97
2023-05-08T02:01:51.329Z,13.27
2023-05-08T02:04:21.559Z,12.90
2023-05-08T02:06:49.868Z,12.30
2023-05-08T02:09:18.334Z,11.63
2023-05-08T02:11:47.763Z,12.40
2023-05-08T02:14:16.358Z,13.07
2023-05-08T02:16:45.175Z,12.40
2023-05-08T02:19:13.753Z,13.27
2023-05-08T02:21:43.495Z,12.70
2023-05-08T02:24:12.262Z,12.50
2023-05-08T02:26:41.209Z,12.60
2023-05-08T02:29:09.529Z,12.27
2023-05-08T02:31:38.345Z,12.13
2023-05-08T02:34:07.020Z,12.90
2023-05-08T02:36:36.538Z,12.20
2023-05-08T02:39:07.430Z,12.33
2023-05-08T02:41:35.705Z,12.87
2023-05-08T02:44:04.188Z,13.50
2023-05-08T02:46:37.785Z,13.40
2023-05-08T02:49:09.030Z,12.80
2023-05-08T02:51:41.295Z,13.80
2023-05-08T02:54:12.507Z,14.70
2023-05-08T02:56:42.490Z,14.70
2023-05-08T02:59:14.853Z,14.13
2023-05-08T03:01:45.231Z,14.37
2023-05-08T03:04:14.143Z,14.33
2023-05-08T03:06:44.558Z,14.23
2023-05-08T03:09:16.246Z,12.63
2023-05-08T03:11:45.565Z,13.37
2023-05-08T03:14:15.040Z,13.10
2023-05-08T03:16:44.684Z,13.17
2023-05-08T03:19:16.878Z,13.73
2023-05-08T03:21:46.054Z,14.33
2023-05-08T03:24:17.228Z,13.77
2023-05-08T03:26:45.619Z,13.63
2023-05-08T03:29:15.364Z,13.77
2023-05-08T03:31:44.148Z,13.53
2023-05-08T03:34:13.837Z,12.90
2023-05-08T03:36:42.127Z,13.17
2023-05-08T03:39:10.400Z,12.33
2023-05-08T03:41:40.105Z,12.97
2023-05-08T03:44:09.341Z,13.50
2023-05-08T03:46:37.601Z,14.27
2023-05-08T03:49:06.120Z,13.43
2023-05-08T03:51:37.113Z,14.03
2023-05-08T03:54:05.354Z,13.63
2023-05-08T03:56:33.529Z,13.77
2023-05-08T03:59:09.795Z,13.60
2023-05-08T04:01:40.748Z,14.13
2023-05-08T04:04:11.218Z,15.73
2023-05-08T04:06:49.416Z,14.80
2023-05-08T04:09:19.793Z,15.90
2023-05-08T04:11:54.288Z,15.73
2023-05-08T04:14:26.285Z,16.77
2023-05-08T04:16:56.800Z,14.43
2023-05-08T04:19:25.978Z,16.57
2023-05-08T04:21:55.735Z,16.13
2023-05-08T04:24:24.887Z,18.30
2023-05-08T04:26:53.766Z,18.63
2023-05-08T04:29:22.056Z,18.53
2023-05-08T04:31:52.208Z,18.70
2023-05-08T04:34:20.659Z,18.00
2023-05-08T04:36:49.460Z,17.47
2023-05-08T04:39:18.202Z,17.47
2023-05-08T04:41:47.998Z,17.00
2023-05-08T04:44:16.307Z,18.30
2023-05-08T04:46:44.529Z,17.33
2023-05-08T04:49:14.016Z,16.80
2023-05-08T04:51:42.191Z,16.13
2023-05-08T04:54:10.358Z,15.53
2023-05-08T04:56:38.574Z,16.43
2023-05-08T04:59:06.728Z,16.57
2023-05-08T05:01:34.921Z,16.90
2023-05-08T05:04:03.285Z,15.63
2023-05-08T05:06:33.590Z,14.73
2023-05-08T05:09:01.721Z,15.20
2023-05-08T05:11:29.866Z,15.57
2023-05-08T05:13:58.157Z,15.60
2023-05-08T05:16:26.732Z,14.70
2023-05-08T05:18:55.034Z,14.87
2023-05-08T05:21:23.182Z,14.53
2023-05-08T05:23:52.682Z,14.70
2023-05-08T05:26:21.539Z,14.27
2023-05-08T05:28:49.748Z,15.67
2023-05-08T05:31:18.491Z,14.40
2023-05-08T05:33:46.741Z,14.90
2023-05-08T05:36:15.059Z,14.77
2023-05-08T05:38:43.235Z,15.30
2023-05-08T05:41:12.730Z,16.80
2023-05-08T05:43:40.868Z,16.17
2023-05-08T05:46:09.751Z,14.87
2023-05-08T05:48:37.948Z,16.67
2023-05-08T05:51:06.184Z,16.10
2023-05-08T05:53:34.396Z,16.57
2023-05-08T05:56:02.554Z,16.87
2023-05-08T05:58:32.064Z,16.23
2023-05-08T06:01:01.293Z,16.43
2023-05-08T06:03:29.733Z,15.07
2023-05-08T06:05:58.485Z,15.10
2023-05-08T06:08:26.936Z,13.60
2023-05-08T06:10:55.214Z,16.40
2023-05-08T06:13:23.481Z,14.83
2023-05-08T06:15:53.119Z,15.33
2023-05-08T06:18:21.274Z,15.97
2023-05-08T06:20:49.483Z,15.90
2023-05-08T06:23:17.889Z,16.90
2023-05-08T06:25:46.042Z,16.90
2023-05-08T06:28:14.244Z,18.17
2023-05-08T06:30:42.491Z,16.73
2023-05-08T06:33:12.466Z,20.23
2023-05-08T06:35:40.701Z,19.60
2023-05-08T06:38:08.862Z,18.17
2023-05-08T06:40:37.060Z,19.30
2023-05-08T06:43:05.763Z,18.00
2023-05-08T06:45:33.924Z,40.47
2023-05-08T06:48:02.248Z,25.83
2023-05-08T06:50:32.181Z,18.90
2023-05-08T06:53:00.354Z,18.80
2023-05-08T06:55:28.572Z,18.27
2023-05-08T06:57:56.729Z,19.33
2023-05-08T07:00:25.130Z,20.00
2023-05-08T07:02:53.365Z,20.23
2023-05-08T07:05:21.736Z,20.93
2023-05-08T07:07:53.972Z,20.40
2023-05-08T07:10:22.910Z,21.50
2023-05-08T07:12:51.174Z,23.80
2023-05-08T07:15:25.945Z,32.73
2023-05-08T07:17:54.995Z,21.50
2023-05-08T07:20:24.394Z,21.67
2023-05-08T07:22:54.153Z,22.30
2023-05-08T07:25:22.338Z,21.77
2023-05-08T07:27:50.495Z,20.67
2023-05-08T07:30:18.746Z,22.37
2023-05-08T07:32:47.016Z,21.33
2023-05-08T07:35:15.691Z,40.30
2023-05-08T07:37:44.411Z,22.10
2023-05-08T07:40:14.192Z,21.27
2023-05-08T07:42:42.762Z,21.30
2023-05-08T07:45:12.057Z,23.27
2023-05-08T07:47:40.547Z,23.53
2023-05-08T07:50:09.035Z,23.20
2023-05-08T07:52:37.181Z,23.90
2023-05-08T07:55:05.620Z,23.60
2023-05-08T07:57:38.995Z,23.20
2023-05-08T08:00:07.888Z,24.33
2023-05-08T08:02:36.201Z,24.40
2023-05-08T08:05:04.452Z,23.73
2023-05-08T08:07:33.031Z,23.37
2023-05-08T08:10:01.317Z,22.80
2023-05-08T08:12:29.725Z,21.97
2023-05-08T08:14:59.501Z,21.97
2023-05-08T08:17:28.931Z,20.57
2023-05-08T08:19:57.554Z,21.67
2023-05-08T08:22:25.808Z,21.83
2023-05-08T08:24:55.237Z,22.20
2023-05-08T08:27:23.799Z,21.53
2023-05-08T08:29:56.320Z,22.57
2023-05-08T08:32:31.057Z,21.90
2023-05-08T08:34:59.256Z,22.07
2023-05-08T08:37:27.453Z,22.70
2023-05-08T08:39:56.026Z,20.80
2023-05-08T08:42:24.631Z,22.20
2023-05-08T08:44:52.829Z,21.17
2023-05-08T08:47:21.077Z,21.87
2023-05-08T08:49:51.936Z,22.27
2023-05-08T08:52:24.767Z,24.13
2023-05-08T08:54:53.219Z,24.67
2023-05-08T08:57:21.861Z,24.57
2023-05-08T08:59:50.485Z,25.97
2023-05-08T09:02:19.513Z,25.63
2023-05-08T09:04:51.013Z,25.60
2023-05-08T09:07:20.918Z,25.10
2023-05-08T09:09:49.168Z,24.33
2023-05-08T09:12:17.339Z,23.77
2023-05-08T09:14:45.524Z,23.73
2023-05-08T09:17:14.170Z,23.80
2023-05-08T09:19:42.436Z,21.40
2023-05-08T09:22:10.983Z,20.93
2023-05-08T09:24:59.588Z,20.67
2023-05-08T09:27:28.456Z,20.87
2023-05-08T09:30:04.759Z,28.52
2023-05-08T09:32:35.078Z,19.90
2023-05-08T09:35:03.646Z,29.60
2023-05-08T09:37:31.979Z,24.52
2023-05-08T09:40:21.656Z,21.25
2023-05-08T09:42:51.057Z,19.00
2023-05-08T09:45:29.070Z,21.23
2023-05-08T09:47:57.159Z,19.23
2023-05-08T09:50:26.572Z,18.02
2023-05-08T09:52:54.478Z,19.45
2023-05-08T09:55:23.892Z,22.07
2023-05-08T09:57:56.820Z,20.30
2023-05-08T10:00:25.841Z,18.73
2023-05-08T10:02:59.475Z,18.17
2023-05-08T10:05:30.012Z,18.13
2023-05-08T10:07:58.077Z,17.50
2023-05-08T10:10:28.426Z,18.93
2023-05-08T10:12:58.044Z,19.57
2023-05-08T10:15:29.115Z,19.90
2023-05-08T10:18:03.835Z,19.30
2023-05-08T10:20:32.785Z,19.90
2023-05-08T10:23:01.920Z,18.00
2023-05-08T10:25:35.821Z,18.63
2023-05-08T10:28:11.917Z,19.67
2023-05-08T10:30:44.947Z,19.50
2023-05-08T10:33:17.994Z,19.80
2023-05-08T10:35:47.210Z,21.73
2023-05-08T10:38:17.565Z,21.20
2023-05-08T10:40:47.203Z,21.67
2023-05-08T10:43:16.241Z,19.17
2023-05-08T10:45:44.609Z,21.50
2023-05-08T10:48:16.560Z,21.47
2023-05-08T10:50:52.632Z,20.37
2023-05-08T10:53:22.348Z,20.23
2023-05-08T10:55:53.112Z,20.67
2023-05-08T10:58:30.777Z,21.40
2023-05-08T11:01:15.011Z,21.67
2023-05-08T11:03:44.926Z,21.47
2023-05-08T11:06:13.283Z,19.20
2023-05-08T11:08:48.915Z,21.03
2023-05-08T11:11:29.340Z,20.33
2023-05-08T11:14:01.242Z,19.83
2023-05-08T11:16:59.812Z,19.97
2023-05-08T11:19:28.425Z,19.53
2023-05-08T11:22:29.970Z,20.60
2023-05-08T11:24:59.285Z,20.57
2023-05-08T11:27:42.634Z,19.17
2023-05-08T11:30:20.437Z,19.37
2023-05-08T11:32:59.085Z,19.77
2023-05-08T11:35:43.258Z,20.50
2023-05-08T11:38:18.177Z,19.10
2023-05-08T11:40:46.849Z,18.50
2023-05-08T11:43:26.982Z,18.07
2023-05-08T11:45:55.624Z,20.20
2023-05-08T11:48:24.065Z,21.37
2023-05-08T11:50:52.982Z,20.43
2023-05-08T11:53:21.268Z,18.90
2023-05-08T11:55:49.701Z,20.37
2023-05-08T11:58:18.108Z,21.17
2023-05-08T12:00:48.322Z,20.30
2023-05-08T12:03:17.363Z,21.17
2023-05-08T12:05:46.188Z,21.30
2023-05-08T12:08:15.059Z,19.17
2023-05-08T12:10:51.479Z,19.10
2023-05-08T12:13:20.377Z,20.00
2023-05-08T12:15:50.719Z,19.33
2023-05-08T12:18:19.049Z,20.43
2023-05-08T12:20:47.277Z,21.77
2023-05-08T12:23:15.561Z,25.07
2023-05-08T12:25:43.786Z,23.40
2023-05-08T12:28:12.252Z,23.83
2023-05-08T12:30:40.818Z,24.23
2023-05-08T12:33:10.584Z,23.43
2023-05-08T12:35:39.156Z,22.67
2023-05-08T12:38:08.098Z,23.90
2023-05-08T12:40:36.991Z,25.37
2023-05-08T12:43:05.901Z,23.70
2023-05-08T12:45:35.671Z,24.23
2023-05-08T12:48:05.147Z,23.03
2023-05-08T12:50:37.035Z,23.23
2023-05-08T12:53:05.473Z,21.40
2023-05-08T12:55:34.230Z,23.20
2023-05-08T12:58:03.719Z,23.83
2023-05-08T13:00:39.033Z,23.03
2023-05-08T13:03:07.562Z,19.53
2023-05-08T13:05:37.656Z,19.07
2023-05-08T13:08:06.712Z,20.07
2023-05-08T13:10:49.933Z,17.73
2023-05-08T13:13:18.828Z,18.47
2023-05-08T13:15:47.241Z,18.50
2023-05-08T13:18:15.423Z,17.93
2023-05-08T13:20:45.270Z,19.00
2023-05-08T13:23:13.457Z,17.40
2023-05-08T13:25:42.341Z,20.07
2023-05-08T13:28:10.963Z,18.50
2023-05-08T13:30:39.267Z,18.47
2023-05-08T13:33:07.810Z,18.30
2023-05-08T13:35:36.597Z,16.33
2023-05-08T13:38:06.206Z,16.67
2023-05-08T13:40:34.444Z,14.67
2023-05-08T13:43:02.622Z,15.10
2023-05-08T13:45:31.433Z,13.27
2023-05-08T13:47:59.615Z,14.13
2023-05-08T13:50:28.292Z,12.47
2023-05-08T13:52:56.447Z,12.83
2023-05-08T13:55:26.194Z,13.17
2023-05-08T13:57:54.354Z,13.27
2023-05-08T14:00:22.550Z,13.27
2023-05-08T14:02:52.948Z,12.03
2023-05-08T14:05:21.497Z,12.07
2023-05-08T14:07:49.667Z,12.17
2023-05-08T14:10:18.056Z,11.50
2023-05-08T14:12:47.629Z,11.03
2023-05-08T14:15:16.189Z,12.90
2023-05-08T14:17:44.546Z,11.70
2023-05-08T14:20:13.126Z,11.67
2023-05-08T14:22:41.296Z,10.10
2023-05-08T14:25:10.336Z,11.17
2023-05-08T14:27:38.600Z,12.57
2023-05-08T14:30:09.510Z,12.37
2023-05-08T14:32:37.774Z,11.47
2023-05-08T14:35:06.146Z,11.80
2023-05-08T14:37:34.316Z,10.37
2023-05-08T14:40:02.528Z,9.10
2023-05-08T14:42:30.703Z,9.47
2023-05-08T14:44:58.942Z,8.27
2023-05-08T14:47:28.559Z,9.30
2023-05-08T14:49:56.748Z,10.00
2023-05-08T14:52:24.889Z,10.17
2023-05-08T14:54:54.087Z,12.23
2023-05-08T14:57:22.755Z,11.43
2023-05-08T15:02:22.263Z,11.07
2023-05-08T15:04:51.853Z,10.87
2023-05-08T15:07:20.100Z,10.67
2023-05-08T15:09:48.547Z,10.60
2023-05-08T15:12:16.691Z,9.00
2023-05-08T15:14:44.861Z,9.00
2023-05-08T15:17:13.023Z,8.70
2023-05-08T15:19:42.322Z,8.30
2023-05-08T15:22:11.819Z,7.77
2023-05-08T15:24:40.015Z,8.50
2023-05-08T15:27:09.849Z,8.33
2023-05-08T15:29:39.607Z,6.27
2023-05-08T15:32:08.035Z,6.20
2023-05-08T15:34:36.666Z,5.57
2023-05-08T15:37:06.185Z,6.33
2023-05-08T15:39:38.091Z,6.80
2023-05-08T15:42:06.527Z,6.67
2023-05-08T15:44:53.322Z,7.27
2023-05-08T15:47:23.745Z,6.03
2023-05-08T15:49:51.955Z,6.17
2023-05-08T15:52:20.211Z,5.83
2023-05-08T15:54:49.850Z,5.80
2023-05-08T15:57:18.347Z,5.27
2023-05-08T15:59:46.539Z,5.07
2023-05-08T16:02:14.760Z,5.77
2023-05-08T16:04:42.976Z,5.97
2023-05-08T16:07:11.142Z,5.50
2023-05-08T16:09:39.304Z,5.50
2023-05-08T16:12:09.109Z,5.40
2023-05-08T16:14:37.299Z,4.60
2023-05-08T16:17:07.925Z,3.57
2023-05-08T16:19:38.711Z,3.83
2023-05-08T16:22:06.916Z,3.20
2023-05-08T16:24:35.137Z,3.43
2023-05-08T16:27:03.493Z,3.40
2023-05-08T16:29:32.989Z,4.17
2023-05-08T16:32:01.160Z,4.30
2023-05-08T16:34:29.740Z,4.20
2023-05-08T16:36:58.451Z,4.83
2023-05-08T16:39:26.820Z,3.43
2023-05-08T16:41:55.002Z,4.03
2023-05-08T16:44:23.172Z,2.70
2023-05-08T16:46:52.740Z,2.33
2023-05-08T16:49:21.022Z,3.20
2023-05-08T16:51:49.203Z,3.33
2023-05-08T16:54:17.373Z,3.00
2023-05-08T16:56:45.618Z,3.30
2023-05-08T16:59:13.792Z,3.30
2023-05-08T17:01:42.129Z,3.60
2023-05-08T17:04:11.829Z,3.60
2023-05-08T17:06:40.704Z,2.87
2023-05-08T17:09:08.907Z,2.70
2023-05-08T17:11:37.073Z,3.30
2023-05-08T17:14:05.219Z,3.40
2023-05-08T17:16:33.443Z,3.57
2023-05-08T17:19:01.659Z,3.70
2023-05-08T17:21:32.036Z,3.30
2023-05-08T17:24:01.104Z,3.40
2023-05-08T17:26:29.349Z,3.67
2023-05-08T17:28:57.514Z,3.47
2023-05-08T17:31:25.751Z,3.93
2023-05-08T17:33:53.984Z,3.30
2023-05-08T17:36:22.230Z,3.73
2023-05-08T17:38:51.976Z,3.63
2023-05-08T17:41:20.624Z,3.53
2023-05-08T17:43:48.793Z,4.50
2023-05-08T17:46:17.118Z,3.37
2023-05-08T17:48:45.320Z,3.60
2023-05-08T17:51:13.828Z,3.30
2023-05-08T17:53:42.006Z,4.73
2023-05-08T17:56:11.688Z,4.37
2023-05-08T17:58:39.897Z,3.53
2023-05-08T18:01:08.175Z,3.40
2023-05-08T18:03:36.451Z,3.40
2023-05-08T18:06:04.723Z,3.00
2023-05-08T18:08:32.911Z,3.13
2023-05-08T18:11:01.215Z,3.23
2023-05-08T18:13:30.900Z,3.53
2023-05-08T18:15:59.106Z,3.40
2023-05-08T18:18:27.366Z,3.40
2023-05-08T18:20:55.513Z,3.30
2023-05-08T18:23:23.666Z,3.27
2023-05-08T18:25:51.880Z,3.30
2023-05-08T18:28:20.046Z,3.37
2023-05-08T18:30:50.565Z,3.23
2023-05-08T18:33:18.737Z,3.60
2023-05-08T18:35:47.026Z,3.10
2023-05-08T18:38:17.504Z,3.50
2023-05-08T18:40:45.716Z,3.50
2023-05-08T18:43:13.885Z,3.57
2023-05-08T18:45:42.234Z,3.20
2023-05-08T18:48:12.103Z,3.40
2023-05-08T18:50:40.409Z,3.40
2023-05-08T18:53:09.769Z,3.47
2023-05-08T18:55:37.969Z,3.27
2023-05-08T18:58:06.373Z,3.33
2023-05-08T19:00:34.589Z,3.30
2023-05-08T19:03:02.925Z,3.20
2023-05-08T19:05:32.559Z,3.53
2023-05-08T19:08:00.740Z,3.23
2023-05-08T19:10:28.997Z,3.30
2023-05-08T19:12:57.752Z,3.03
2023-05-08T19:15:25.962Z,2.90
2023-05-08T19:17:54.161Z,3.13
2023-05-08T19:20:22.468Z,3.20
2023-05-08T19:22:51.988Z,2.70
2023-05-08T19:25:20.183Z,3.13
2023-05-08T19:27:48.369Z,3.00
2023-05-08T19:30:16.861Z,3.43
2023-05-08T19:32:45.110Z,3.17
2023-05-08T19:35:13.316Z,3.20
2023-05-08T19:37:41.545Z,3.27
2023-05-08T19:40:12.014Z,3.20
2023-05-08T19:42:40.339Z,3.40
2023-05-08T19:45:08.958Z,3.00
2023-05-08T19:47:37.163Z,3.10
2023-05-08T19:50:06.248Z,3.50
2023-05-08T19:52:34.449Z,2.90
2023-05-08T19:55:02.624Z,3.23
2023-05-08T19:57:32.127Z,3.13
2023-05-08T20:00:00.310Z,3.20
2023-05-08T20:02:28.603Z,3.23
2023-05-08T20:07:27.959Z,3.57
2023-05-08T20:09:56.124Z,3.30
2023-05-08T20:12:24.304Z,3.60
2023-05-08T20:14:53.978Z,3.83
2023-05-08T20:17:22.192Z,3.60
2023-05-08T20:19:50.408Z,3.87
2023-05-08T20:22:18.573Z,3.70
2023-05-08T20:24:46.743Z,3.67
2023-05-08T20:27:14.913Z,3.70
2023-05-08T20:29:43.092Z,4.03
2023-05-08T20:32:14.695Z,3.73
2023-05-08T20:34:44.118Z,3.60
2023-05-08T20:37:12.371Z,3.70
2023-05-08T20:39:40.521Z,3.67
2023-05-08T20:42:08.683Z,3.67
2023-05-08T20:44:36.830Z,3.70
2023-05-08T20:47:05.130Z,3.37
2023-05-08T20:49:34.664Z,3.23
2023-05-08T20:52:02.920Z,3.90
2023-05-08T20:54:31.253Z,3.83
2023-05-08T20:56:59.404Z,3.70
2023-05-08T20:59:27.597Z,6.13
2023-05-08T21:01:55.765Z,5.80
2023-05-08T21:04:23.983Z,7.53
2023-05-08T21:06:53.510Z,10.20
2023-05-08T21:09:21.671Z,12.43
2023-05-08T21:11:49.932Z,14.33
2023-05-08T21:14:18.102Z,16.23
2023-05-08T21:16:46.325Z,16.37
2023-05-08T21:19:17.450Z,17.80
2023-05-08T21:21:45.651Z,17.43
2023-05-08T21:24:15.771Z,19.17
2023-05-08T21:26:43.965Z,20.40
2023-05-08T21:29:12.113Z,18.50
2023-05-08T21:31:41.144Z,18.20
2023-05-08T21:34:09.355Z,19.20
2023-05-08T21:36:37.546Z,21.23
2023-05-08T21:39:05.827Z,20.27
2023-05-08T21:41:35.404Z,20.40
2023-05-08T21:44:03.640Z,20.90
2023-05-08T21:46:31.861Z,20.80
2023-05-08T21:49:00.091Z,21.03
2023-05-08T21:51:28.252Z,22.23
2023-05-08T21:53:56.422Z,22.23
2023-05-08T21:56:24.752Z,24.57
2023-05-08T21:58:55.496Z,22.83
2023-05-08T22:01:23.848Z,25.23
2023-05-08T22:03:52.237Z,25.10
2023-05-08T22:06:20.486Z,27.47
2023-05-08T22:08:48.650Z,27.40
2023-05-08T22:11:16.865Z,27.83
2023-05-08T22:13:45.084Z,28.73
2023-05-08T22:16:14.719Z,27.07
2023-05-08T22:18:42.888Z,29.13
2023-05-08T22:21:11.106Z,28.50
2023-05-08T22:23:39.270Z,27.00
2023-05-08T22:26:07.558Z,29.80
2023-05-08T22:28:36.022Z,29.20
2023-05-08T22:31:04.173Z,28.77
2023-05-08T22:33:34.017Z,28.43
2023-05-08T22:36:02.232Z,29.43
2023-05-08T22:38:30.367Z,28.77
2023-05-08T22:41:00.082Z,30.07
2023-05-08T22:43:28.348Z,30.47
2023-05-08T22:45:57.055Z,29.63
2023-05-08T22:48:25.249Z,31.67
2023-05-08T22:50:54.740Z,30.67
2023-05-08T22:53:22.926Z,28.93
2023-05-08T22:55:51.058Z,29.00
2023-05-08T22:58:19.251Z,29.50
2023-05-08T23:00:47.526Z,29.33
2023-05-08T23:03:16.456Z,27.80
2023-05-08T23:05:45.313Z,28.90
2023-05-08T23:08:14.853Z,28.80
2023-05-08T23:10:43.172Z,28.50
2023-05-08T23:13:11.427Z,28.63
2023-05-08T23:15:39.598Z,28.03
2023-05-08T23:18:07.846Z,29.07
2023-05-08T23:20:36.028Z,28.33
2023-05-08T23:23:04.215Z,26.50
2023-05-08T23:25:33.728Z,27.63
2023-05-08T23:28:01.882Z,27.67
2023-05-08T23:30:30.019Z,27.67
2023-05-08T23:32:58.231Z,27.47
2023-05-08T23:35:26.393Z,25.93
2023-05-08T23:37:54.558Z,26.93
2023-05-08T23:40:22.751Z,26.73
2023-05-08T23:42:52.730Z,25.87
2023-05-08T23:45:20.922Z,25.43
2023-05-08T23:47:49.239Z,25.40
2023-05-08T23:50:17.493Z,25.60
2023-05-08T23:52:45.689Z,23.87
2023-05-08T23:55:14.085Z,23.90
2023-05-08T23:57:42.392Z,25.83
